CheckWX is a tool to help pilots better visualize weather data.  It is not intended as a substitute for an official pre-flight weather briefing.

02:56:23 UTC

KERV METAR
Kerrville Municipal / Louis Schreiner Field Airport
Kerrville, Texas, USA
Current

21 mins ago

KERV 240235Z AUTO 15010KT 10SM OVC015 18/16 A3006 RMK AO2 T01800157
Observed
Mar-24 @ 02:35 UTC
Wind
  • 150° at 10 KTS
Visibility
10 SM
Flight Rules
MVFR
Cloud Levels
  • Overcast at 1,500' AGL
Temperature
18°C / 64°F
Dewpoint
16°C / 61°F
Humidity
88%
Altimeter
30.06" Hg
Pressure
1017.92 hPa
Previous

41 mins ago

KERV 240215Z AUTO 14008KT 10SM OVC015 18/16 A3005 RMK AO2 T01760156
Observed
Mar-24 @ 02:15 UTC
Wind
  • 140° at 8 KTS
Visibility
10 SM
Flight Rules
MVFR
Cloud Levels
  • Overcast at 1,500' AGL
Temperature
18°C / 64°F
Dewpoint
16°C / 61°F
Humidity
88%
Altimeter
30.05" Hg
Pressure
1017.62 hPa
Previous

1 hour ago

KERV 240155Z AUTO 14008KT 10SM BKN015 BKN022 BKN027 18/16 A3006 RMK AO2 T01780156
Observed
Mar-24 @ 01:55 UTC
Wind
  • 140° at 8 KTS
Visibility
10 SM
Flight Rules
MVFR
Cloud Levels
  • Broken at 1,500' AGL
  • Broken at 2,200' AGL
  • Broken at 2,700' AGL
Temperature
18°C / 64°F
Dewpoint
16°C / 61°F
Humidity
88%
Altimeter
30.06" Hg
Pressure
1017.92 hPa